Gossett, Illinois
Current Conditions -  °F | °C
As of 10:35 AM on Thursday 30 Oct 2014 (Local Time) from KCUL Reporting Station
Clear Clear  
Wind Chill: 53°   Ceiling: Unl
Heat Index: 53°   Visibility: 10mi
Dew Point: 42°   Wind: 5mph
Humidity: 66%   Direction: 130°SE
Pressure: 30.17"   Gusts: NA
Location:  37.9739°N, 88.3193°W
Report Text: KCUL 301535Z AUTO 13004KT 10SM CLR 11/05 A3017 RMK AO2 T01140053
Loading
Personal Weather Stations






























Interactive Weather Map
Tropical Storm Tracking
New forecast layout! Learn more

10-Day Weather Forecast

Advertisements
Track Severe Weather on mobile